White River Bluffs, Indiana
Current Conditions -  °F | °C
As of 5:50 PM on Monday 22 Dec 2014 (Local Time) from KBMG Reporting Station
Light Rain Light Rain  
Wind Chill: 40°   Ceiling: 7000
Heat Index: 45°   Visibility: 10mi
Dew Point: 41°   Wind: 9mph
Humidity: 87%   Direction: 120°ESE
Pressure: 29.7"   Gusts: NA
Location:  38.8737°N, 86.4563°W
Report Text: KBMG 222250Z 12008KT 10SM -RA SCT022 BKN070 OVC085 07/05 A2970 RMK AO2 P0002
Loading
Personal Weather Stations






























Interactive Weather Map New forecast layout! Learn more

10-Day Weather Forecast

Advertisements
Track Severe Weather on mobile